sensor_id;sensor_type;location;lat;lon;timestamp;P1;durP1;ratioP1;P2;durP2;ratioP2
71303;SDS011;59091;47.446;19.148;2023-04-25T00:02:11;3.05;;;2.03;;
71303;SDS011;59091;47.446;19.148;2023-04-25T00:04:36;3.25;;;1.92;;
71303;SDS011;59091;47.446;19.148;2023-04-25T00:07:03;2.22;;;2.03;;
71303;SDS011;59091;47.446;19.148;2023-04-25T00:09:28;1.98;;;1.80;;
71303;SDS011;59091;47.446;19.148;2023-04-25T00:11:54;2.10;;;2.00;;
71303;SDS011;59091;47.446;19.148;2023-04-25T00:14:19;2.10;;;1.92;;
71303;SDS011;59091;47.446;19.148;2023-04-25T00:16:45;1.95;;;1.80;;
71303;SDS011;59091;47.446;19.148;2023-04-25T00:19:10;3.10;;;1.92;;
71303;SDS011;59091;47.446;19.148;2023-04-25T00:21:36;1.70;;;1.60;;
71303;SDS011;59091;47.446;19.148;2023-04-25T00:24:05;2.03;;;1.92;;
71303;SDS011;59091;47.446;19.148;2023-04-25T00:26:31;1.95;;;1.80;;
71303;SDS011;59091;47.446;19.148;2023-04-25T00:28:57;6.88;;;2.20;;
71303;SDS011;59091;47.446;19.148;2023-04-25T00:31:22;1.80;;;1.70;;
71303;SDS011;59091;47.446;19.148;2023-04-25T00:33:47;1.80;;;1.70;;
71303;SDS011;59091;47.446;19.148;2023-04-25T00:36:13;4.53;;;1.73;;
71303;SDS011;59091;47.446;19.148;2023-04-25T00:38:38;2.08;;;1.98;;
71303;SDS011;59091;47.446;19.148;2023-04-25T00:41:07;2.20;;;2.00;;
71303;SDS011;59091;47.446;19.148;2023-04-25T00:43:33;3.17;;;2.05;;
71303;SDS011;59091;47.446;19.148;2023-04-25T00:45:59;2.85;;;2.20;;
71303;SDS011;59091;47.446;19.148;2023-04-25T00:48:25;4.28;;;2.05;;
71303;SDS011;59091;47.446;19.148;2023-04-25T00:50:51;2.35;;;2.15;;
71303;SDS011;59091;47.446;19.148;2023-04-25T00:53:20;2.88;;;2.50;;
71303;SDS011;59091;47.446;19.148;2023-04-25T00:55:46;2.20;;;2.00;;
71303;SDS011;59091;47.446;19.148;2023-04-25T00:58:12;3.30;;;2.22;;
71303;SDS011;59091;47.446;19.148;2023-04-25T01:00:39;3.28;;;2.42;;
71303;SDS011;59091;47.446;19.148;2023-04-25T01:03:05;2.92;;;2.55;;
71303;SDS011;59091;47.446;19.148;2023-04-25T01:05:31;3.97;;;2.55;;
71303;SDS011;59091;47.446;19.148;2023-04-25T01:07:56;3.10;;;2.30;;
71303;SDS011;59091;47.446;19.148;2023-04-25T01:10:22;8.68;;;2.92;;
71303;SDS011;59091;47.446;19.148;2023-04-25T01:12:47;3.00;;;2.70;;
71303;SDS011;59091;47.446;19.148;2023-04-25T01:15:13;8.27;;;2.72;;
71303;SDS011;59091;47.446;19.148;2023-04-25T01:17:39;2.83;;;2.63;;
71303;SDS011;59091;47.446;19.148;2023-04-25T01:20:05;2.50;;;2.30;;
71303;SDS011;59091;47.446;19.148;2023-04-25T01:22:32;2.50;;;2.30;;
71303;SDS011;59091;47.446;19.148;2023-04-25T01:24:58;4.05;;;2.80;;
71303;SDS011;59091;47.446;19.148;2023-04-25T01:27:24;2.70;;;2.50;;
71303;SDS011;59091;47.446;19.148;2023-04-25T01:29:53;2.60;;;2.40;;
71303;SDS011;59091;47.446;19.148;2023-04-25T01:32:19;4.70;;;2.78;;
71303;SDS011;59091;47.446;19.148;2023-04-25T01:34:45;2.80;;;2.47;;
71303;SDS011;59091;47.446;19.148;2023-04-25T01:37:11;3.13;;;2.50;;
71303;SDS011;59091;47.446;19.148;2023-04-25T01:39:36;6.88;;;2.80;;
71303;SDS011;59091;47.446;19.148;2023-04-25T01:42:02;4.85;;;2.95;;
71303;SDS011;59091;47.446;19.148;2023-04-25T01:44:27;3.80;;;2.92;;
71303;SDS011;59091;47.446;19.148;2023-04-25T01:46:53;3.17;;;2.88;;
71303;SDS011;59091;47.446;19.148;2023-04-25T01:49:19;3.35;;;3.05;;
71303;SDS011;59091;47.446;19.148;2023-04-25T01:51:44;6.65;;;3.10;;
71303;SDS011;59091;47.446;19.148;2023-04-25T01:54:10;3.88;;;3.40;;
71303;SDS011;59091;47.446;19.148;2023-04-25T01:56:36;3.58;;;2.75;;
71303;SDS011;59091;47.446;19.148;2023-04-25T01:59:03;3.75;;;3.25;;
71303;SDS011;59091;47.446;19.148;2023-04-25T02:01:29;7.50;;;3.20;;
71303;SDS011;59091;47.446;19.148;2023-04-25T02:03:55;4.95;;;3.40;;
71303;SDS011;59091;47.446;19.148;2023-04-25T02:06:20;4.47;;;3.13;;
71303;SDS011;59091;47.446;19.148;2023-04-25T02:08:46;3.20;;;2.92;;
71303;SDS011;59091;47.446;19.148;2023-04-25T02:11:11;4.45;;;2.95;;
71303;SDS011;59091;47.446;19.148;2023-04-25T02:13:36;5.40;;;3.33;;
71303;SDS011;59091;47.446;19.148;2023-04-25T02:16:02;7.55;;;3.38;;
71303;SDS011;59091;47.446;19.148;2023-04-25T02:18:27;3.13;;;2.83;;
71303;SDS011;59091;47.446;19.148;2023-04-25T02:20:53;3.42;;;3.13;;
71303;SDS011;59091;47.446;19.148;2023-04-25T02:23:19;4.85;;;3.00;;
71303;SDS011;59091;47.446;19.148;2023-04-25T02:25:44;4.18;;;2.92;;
71303;SDS011;59091;47.446;19.148;2023-04-25T02:28:10;6.43;;;3.13;;
71303;SDS011;59091;47.446;19.148;2023-04-25T02:30:36;4.50;;;2.95;;
71303;SDS011;59091;47.446;19.148;2023-04-25T02:33:01;4.82;;;3.03;;
71303;SDS011;59091;47.446;19.148;2023-04-25T02:35:27;3.10;;;2.80;;
71303;SDS011;59091;47.446;19.148;2023-04-25T02:37:52;3.80;;;3.20;;
71303;SDS011;59091;47.446;19.148;2023-04-25T02:40:18;3.58;;;2.83;;
71303;SDS011;59091;47.446;19.148;2023-04-25T02:42:43;3.47;;;3.17;;
71303;SDS011;59091;47.446;19.148;2023-04-25T02:45:10;3.90;;;2.97;;
71303;SDS011;59091;47.446;19.148;2023-04-25T02:47:36;4.53;;;2.92;;
71303;SDS011;59091;47.446;19.148;2023-04-25T02:50:02;2.85;;;2.63;;
71303;SDS011;59091;47.446;19.148;2023-04-25T02:52:28;4.45;;;3.03;;
71303;SDS011;59091;47.446;19.148;2023-04-25T02:54:53;4.25;;;2.58;;
71303;SDS011;59091;47.446;19.148;2023-04-25T02:57:18;2.92;;;2.63;;
71303;SDS011;59091;47.446;19.148;2023-04-25T02:59:44;2.60;;;2.40;;
71303;SDS011;59091;47.446;19.148;2023-04-25T03:02:09;2.90;;;2.70;;
71303;SDS011;59091;47.446;19.148;2023-04-25T03:04:35;3.13;;;2.70;;
71303;SDS011;59091;47.446;19.148;2023-04-25T03:07:00;2.75;;;2.55;;
71303;SDS011;59091;47.446;19.148;2023-04-25T03:09:26;4.85;;;2.55;;
71303;SDS011;59091;47.446;19.148;2023-04-25T03:11:51;4.00;;;2.35;;
71303;SDS011;59091;47.446;19.148;2023-04-25T03:14:17;9.82;;;2.63;;
71303;SDS011;59091;47.446;19.148;2023-04-25T03:16:42;2.50;;;2.30;;
71303;SDS011;59091;47.446;19.148;2023-04-25T03:19:08;5.05;;;2.88;;
71303;SDS011;59091;47.446;19.148;2023-04-25T03:21:34;6.03;;;2.78;;
71303;SDS011;59091;47.446;19.148;2023-04-25T03:24:00;3.85;;;2.78;;
71303;SDS011;59091;47.446;19.148;2023-04-25T03:26:27;4.70;;;2.97;;
71303;SDS011;59091;47.446;19.148;2023-04-25T03:28:53;3.65;;;3.22;;
71303;SDS011;59091;47.446;19.148;2023-04-25T03:31:18;6.55;;;3.20;;
71303;SDS011;59091;47.446;19.148;2023-04-25T03:33:44;3.35;;;3.05;;
71303;SDS011;59091;47.446;19.148;2023-04-25T03:36:10;4.75;;;2.97;;
71303;SDS011;59091;47.446;19.148;2023-04-25T03:38:35;2.97;;;2.78;;
71303;SDS011;59091;47.446;19.148;2023-04-25T03:41:01;3.03;;;2.80;;
71303;SDS011;59091;47.446;19.148;2023-04-25T03:43:27;3.25;;;2.95;;
71303;SDS011;59091;47.446;19.148;2023-04-25T03:45:53;3.63;;;3.25;;
71303;SDS011;59091;47.446;19.148;2023-04-25T03:48:18;3.03;;;2.65;;
71303;SDS011;59091;47.446;19.148;2023-04-25T03:50:46;5.10;;;2.63;;
71303;SDS011;59091;47.446;19.148;2023-04-25T03:53:12;5.25;;;3.10;;
71303;SDS011;59091;47.446;19.148;2023-04-25T03:55:37;4.22;;;2.80;;
71303;SDS011;59091;47.446;19.148;2023-04-25T03:58:03;4.68;;;2.55;;
71303;SDS011;59091;47.446;19.148;2023-04-25T04:00:28;2.70;;;2.50;;
71303;SDS011;59091;47.446;19.148;2023-04-25T04:02:53;3.72;;;2.47;;
71303;SDS011;59091;47.446;19.148;2023-04-25T04:05:19;3.60;;;2.90;;
71303;SDS011;59091;47.446;19.148;2023-04-25T04:07:44;3.13;;;2.83;;
71303;SDS011;59091;47.446;19.148;2023-04-25T04:10:10;4.20;;;2.90;;
71303;SDS011;59091;47.446;19.148;2023-04-25T04:12:35;3.17;;;2.88;;
71303;SDS011;59091;47.446;19.148;2023-04-25T04:15:02;3.28;;;2.97;;
71303;SDS011;59091;47.446;19.148;2023-04-25T04:17:28;3.58;;;3.08;;
71303;SDS011;59091;47.446;19.148;2023-04-25T04:19:54;2.60;;;2.40;;
71303;SDS011;59091;47.446;19.148;2023-04-25T04:22:20;2.85;;;2.65;;
71303;SDS011;59091;47.446;19.148;2023-04-25T04:24:45;2.80;;;2.60;;
71303;SDS011;59091;47.446;19.148;2023-04-25T04:27:11;3.80;;;2.47;;
71303;SDS011;59091;47.446;19.148;2023-04-25T04:29:37;3.95;;;2.65;;
71303;SDS011;59091;47.446;19.148;2023-04-25T04:32:03;4.38;;;2.63;;
71303;SDS011;59091;47.446;19.148;2023-04-25T04:34:29;3.03;;;2.58;;
71303;SDS011;59091;47.446;19.148;2023-04-25T04:36:56;3.90;;;2.58;;
71303;SDS011;59091;47.446;19.148;2023-04-25T04:39:21;3.40;;;2.67;;
71303;SDS011;59091;47.446;19.148;2023-04-25T04:41:47;3.08;;;2.78;;
71303;SDS011;59091;47.446;19.148;2023-04-25T04:44:12;5.53;;;3.10;;
71303;SDS011;59091;47.446;19.148;2023-04-25T04:46:39;3.08;;;2.78;;
71303;SDS011;59091;47.446;19.148;2023-04-25T04:49:07;5.43;;;3.33;;
71303;SDS011;59091;47.446;19.148;2023-04-25T04:51:33;4.85;;;3.00;;
71303;SDS011;59091;47.446;19.148;2023-04-25T04:53:59;5.45;;;3.10;;
71303;SDS011;59091;47.446;19.148;2023-04-25T04:56:27;4.28;;;3.15;;
71303;SDS011;59091;47.446;19.148;2023-04-25T04:58:56;3.10;;;2.80;;
71303;SDS011;59091;47.446;19.148;2023-04-25T05:01:22;4.75;;;2.70;;
71303;SDS011;59091;47.446;19.148;2023-04-25T05:03:47;3.10;;;2.83;;
71303;SDS011;59091;47.446;19.148;2023-04-25T05:06:13;3.10;;;2.80;;
71303;SDS011;59091;47.446;19.148;2023-04-25T05:08:38;11.00;;;2.80;;
71303;SDS011;59091;47.446;19.148;2023-04-25T05:11:03;3.28;;;2.97;;
71303;SDS011;59091;47.446;19.148;2023-04-25T05:13:29;5.65;;;2.72;;
71303;SDS011;59091;47.446;19.148;2023-04-25T05:15:55;2.60;;;2.40;;
71303;SDS011;59091;47.446;19.148;2023-04-25T05:18:20;4.78;;;2.78;;
71303;SDS011;59091;47.446;19.148;2023-04-25T05:20:45;3.95;;;2.80;;
71303;SDS011;59091;47.446;19.148;2023-04-25T05:23:11;2.92;;;2.60;;
71303;SDS011;59091;47.446;19.148;2023-04-25T05:25:36;2.90;;;2.70;;
71303;SDS011;59091;47.446;19.148;2023-04-25T05:28:02;3.03;;;2.60;;
71303;SDS011;59091;47.446;19.148;2023-04-25T05:30:27;3.80;;;2.70;;
71303;SDS011;59091;47.446;19.148;2023-04-25T05:32:53;2.78;;;2.58;;
71303;SDS011;59091;47.446;19.148;2023-04-25T05:35:18;3.60;;;2.70;;
71303;SDS011;59091;47.446;19.148;2023-04-25T05:37:43;3.03;;;2.70;;
71303;SDS011;59091;47.446;19.148;2023-04-25T05:40:09;2.50;;;2.30;;
71303;SDS011;59091;47.446;19.148;2023-04-25T05:42:35;3.08;;;2.78;;
71303;SDS011;59091;47.446;19.148;2023-04-25T05:45:00;3.65;;;2.75;;
71303;SDS011;59091;47.446;19.148;2023-04-25T05:47:26;4.78;;;2.75;;
71303;SDS011;59091;47.446;19.148;2023-04-25T05:49:51;2.97;;;2.63;;
71303;SDS011;59091;47.446;19.148;2023-04-25T05:52:17;2.42;;;2.22;;
71303;SDS011;59091;47.446;19.148;2023-04-25T05:54:43;2.70;;;2.50;;
71303;SDS011;59091;47.446;19.148;2023-04-25T05:57:08;7.00;;;3.00;;
71303;SDS011;59091;47.446;19.148;2023-04-25T05:59:34;3.38;;;2.35;;
71303;SDS011;59091;47.446;19.148;2023-04-25T06:01:59;5.07;;;2.72;;
71303;SDS011;59091;47.446;19.148;2023-04-25T06:04:25;3.22;;;2.65;;
71303;SDS011;59091;47.446;19.148;2023-04-25T06:06:51;4.45;;;2.90;;
71303;SDS011;59091;47.446;19.148;2023-04-25T06:09:16;2.95;;;2.75;;
71303;SDS011;59091;47.446;19.148;2023-04-25T06:11:42;5.25;;;3.00;;
71303;SDS011;59091;47.446;19.148;2023-04-25T06:14:07;4.90;;;2.88;;
71303;SDS011;59091;47.446;19.148;2023-04-25T06:16:33;4.38;;;3.33;;
71303;SDS011;59091;47.446;19.148;2023-04-25T06:18:58;3.85;;;2.97;;
71303;SDS011;59091;47.446;19.148;2023-04-25T06:21:23;3.45;;;3.15;;
71303;SDS011;59091;47.446;19.148;2023-04-25T06:23:49;5.93;;;3.22;;
71303;SDS011;59091;47.446;19.148;2023-04-25T06:26:14;4.00;;;3.00;;
71303;SDS011;59091;47.446;19.148;2023-04-25T06:28:40;4.97;;;3.20;;
71303;SDS011;59091;47.446;19.148;2023-04-25T06:31:05;4.28;;;3.35;;
71303;SDS011;59091;47.446;19.148;2023-04-25T06:33:31;5.30;;;3.70;;
71303;SDS011;59091;47.446;19.148;2023-04-25T06:35:56;3.97;;;3.60;;
71303;SDS011;59091;47.446;19.148;2023-04-25T06:38:22;4.30;;;3.20;;
71303;SDS011;59091;47.446;19.148;2023-04-25T06:40:47;3.88;;;3.42;;
71303;SDS011;59091;47.446;19.148;2023-04-25T06:43:12;4.30;;;3.63;;
71303;SDS011;59091;47.446;19.148;2023-04-25T06:45:38;4.85;;;3.75;;
71303;SDS011;59091;47.446;19.148;2023-04-25T06:48:03;4.28;;;3.72;;
71303;SDS011;59091;47.446;19.148;2023-04-25T06:50:29;4.75;;;3.95;;
71303;SDS011;59091;47.446;19.148;2023-04-25T06:52:54;4.75;;;3.65;;
71303;SDS011;59091;47.446;19.148;2023-04-25T06:55:20;6.70;;;4.15;;
71303;SDS011;59091;47.446;19.148;2023-04-25T06:57:45;4.57;;;3.95;;
71303;SDS011;59091;47.446;19.148;2023-04-25T07:00:11;4.47;;;4.07;;
71303;SDS011;59091;47.446;19.148;2023-04-25T07:02:37;5.30;;;3.63;;
71303;SDS011;59091;47.446;19.148;2023-04-25T07:05:02;6.78;;;4.25;;
71303;SDS011;59091;47.446;19.148;2023-04-25T07:07:29;7.53;;;4.65;;
71303;SDS011;59091;47.446;19.148;2023-04-25T07:09:55;4.70;;;3.97;;
71303;SDS011;59091;47.446;19.148;2023-04-25T07:12:21;6.50;;;4.30;;
71303;SDS011;59091;47.446;19.148;2023-04-25T07:14:47;6.45;;;4.20;;
71303;SDS011;59091;47.446;19.148;2023-04-25T07:17:12;6.80;;;4.18;;
71303;SDS011;59091;47.446;19.148;2023-04-25T07:19:37;5.05;;;4.60;;
71303;SDS011;59091;47.446;19.148;2023-04-25T07:22:05;5.00;;;4.55;;
71303;SDS011;59091;47.446;19.148;2023-04-25T07:24:30;5.05;;;4.55;;
71303;SDS011;59091;47.446;19.148;2023-04-25T07:26:56;5.53;;;4.50;;
71303;SDS011;59091;47.446;19.148;2023-04-25T07:29:22;5.82;;;4.32;;
71303;SDS011;59091;47.446;19.148;2023-04-25T07:31:48;6.25;;;4.47;;
71303;SDS011;59091;47.446;19.148;2023-04-25T07:34:14;4.45;;;4.00;;
71303;SDS011;59091;47.446;19.148;2023-04-25T07:36:40;4.40;;;3.92;;
71303;SDS011;59091;47.446;19.148;2023-04-25T07:39:06;4.82;;;4.32;;
71303;SDS011;59091;47.446;19.148;2023-04-25T07:41:32;6.20;;;4.13;;
71303;SDS011;59091;47.446;19.148;2023-04-25T07:43:58;6.00;;;3.90;;
71303;SDS011;59091;47.446;19.148;2023-04-25T07:46:23;4.43;;;4.03;;
71303;SDS011;59091;47.446;19.148;2023-04-25T07:48:48;4.30;;;3.90;;
71303;SDS011;59091;47.446;19.148;2023-04-25T07:51:14;5.78;;;4.30;;
71303;SDS011;59091;47.446;19.148;2023-04-25T07:53:40;6.30;;;4.38;;
71303;SDS011;59091;47.446;19.148;2023-04-25T07:56:05;6.82;;;4.13;;
71303;SDS011;59091;47.446;19.148;2023-04-25T07:58:31;5.20;;;3.83;;
71303;SDS011;59091;47.446;19.148;2023-04-25T08:00:56;6.57;;;3.60;;
71303;SDS011;59091;47.446;19.148;2023-04-25T08:03:22;3.92;;;3.50;;
71303;SDS011;59091;47.446;19.148;2023-04-25T08:05:47;3.35;;;3.05;;
71303;SDS011;59091;47.446;19.148;2023-04-25T08:08:12;4.88;;;3.53;;
71303;SDS011;59091;47.446;19.148;2023-04-25T08:10:38;3.42;;;3.17;;
71303;SDS011;59091;47.446;19.148;2023-04-25T08:13:04;3.80;;;3.50;;
71303;SDS011;59091;47.446;19.148;2023-04-25T08:15:29;5.75;;;3.00;;
71303;SDS011;59091;47.446;19.148;2023-04-25T08:17:54;4.32;;;3.30;;
71303;SDS011;59091;47.446;19.148;2023-04-25T08:20:20;3.85;;;3.22;;
71303;SDS011;59091;47.446;19.148;2023-04-25T08:22:45;3.90;;;3.30;;
71303;SDS011;59091;47.446;19.148;2023-04-25T08:25:11;3.85;;;3.10;;
71303;SDS011;59091;47.446;19.148;2023-04-25T08:27:36;4.68;;;3.10;;
71303;SDS011;59091;47.446;19.148;2023-04-25T08:30:02;3.80;;;3.10;;
71303;SDS011;59091;47.446;19.148;2023-04-25T08:32:28;3.90;;;3.05;;
71303;SDS011;59091;47.446;19.148;2023-04-25T08:34:54;2.70;;;2.50;;
71303;SDS011;59091;47.446;19.148;2023-04-25T08:37:20;3.20;;;2.90;;
71303;SDS011;59091;47.446;19.148;2023-04-25T08:39:46;3.17;;;2.90;;
71303;SDS011;59091;47.446;19.148;2023-04-25T08:42:13;6.97;;;3.05;;
71303;SDS011;59091;47.446;19.148;2023-04-25T08:44:40;2.63;;;2.42;;
71303;SDS011;59091;47.446;19.148;2023-04-25T08:47:06;2.88;;;2.60;;
71303;SDS011;59091;47.446;19.148;2023-04-25T08:49:32;2.75;;;2.50;;
71303;SDS011;59091;47.446;19.148;2023-04-25T08:51:59;2.70;;;2.50;;
71303;SDS011;59091;47.446;19.148;2023-04-25T08:54:27;4.85;;;2.28;;
71303;SDS011;59091;47.446;19.148;2023-04-25T08:56:54;2.72;;;2.53;;
71303;SDS011;59091;47.446;19.148;2023-04-25T08:59:20;5.35;;;2.80;;
71303;SDS011;59091;47.446;19.148;2023-04-25T09:01:48;3.40;;;2.90;;
71303;SDS011;59091;47.446;19.148;2023-04-25T09:04:14;3.35;;;2.53;;
71303;SDS011;59091;47.446;19.148;2023-04-25T09:06:40;3.85;;;2.42;;
71303;SDS011;59091;47.446;19.148;2023-04-25T09:09:07;2.58;;;2.28;;
71303;SDS011;59091;47.446;19.148;2023-04-25T09:11:35;3.13;;;2.50;;
71303;SDS011;59091;47.446;19.148;2023-04-25T09:14:11;2.75;;;2.55;;
71303;SDS011;59091;47.446;19.148;2023-04-25T09:19:21;2.85;;;2.65;;
71303;SDS011;59091;47.446;19.148;2023-04-25T09:21:55;2.80;;;2.38;;
71303;SDS011;59091;47.446;19.148;2023-04-25T09:27:09;6.00;;;2.35;;
71303;SDS011;59091;47.446;19.148;2023-04-25T09:29:36;3.58;;;2.60;;
71303;SDS011;59091;47.446;19.148;2023-04-25T09:32:18;2.85;;;2.63;;
71303;SDS011;59091;47.446;19.148;2023-04-25T09:34:50;3.25;;;2.70;;
71303;SDS011;59091;47.446;19.148;2023-04-25T09:37:23;4.28;;;2.40;;
71303;SDS011;59091;47.446;19.148;2023-04-25T09:39:56;3.63;;;2.60;;
71303;SDS011;59091;47.446;19.148;2023-04-25T09:42:29;2.80;;;2.60;;
71303;SDS011;59091;47.446;19.148;2023-04-25T09:44:56;5.10;;;2.45;;
71303;SDS011;59091;47.446;19.148;2023-04-25T09:47:26;2.97;;;2.38;;
71303;SDS011;59091;47.446;19.148;2023-04-25T09:49:52;2.55;;;2.38;;
71303;SDS011;59091;47.446;19.148;2023-04-25T09:52:19;2.72;;;2.30;;
71303;SDS011;59091;47.446;19.148;2023-04-25T09:54:46;2.60;;;2.40;;
71303;SDS011;59091;47.446;19.148;2023-04-25T09:57:31;2.40;;;2.20;;
71303;SDS011;59091;47.446;19.148;2023-04-25T09:59:56;2.33;;;2.13;;
71303;SDS011;59091;47.446;19.148;2023-04-25T10:02:25;3.97;;;2.25;;
71303;SDS011;59091;47.446;19.148;2023-04-25T10:04:55;1.90;;;1.80;;
71303;SDS011;59091;47.446;19.148;2023-04-25T10:07:24;6.63;;;2.10;;
71303;SDS011;59091;47.446;19.148;2023-04-25T10:10:03;4.27;;;2.13;;
71303;SDS011;59091;47.446;19.148;2023-04-25T10:12:30;1.52;;;1.40;;
71303;SDS011;59091;47.446;19.148;2023-04-25T10:14:56;3.08;;;1.60;;
71303;SDS011;59091;47.446;19.148;2023-04-25T10:17:22;1.40;;;1.30;;
71303;SDS011;59091;47.446;19.148;2023-04-25T10:19:48;5.70;;;1.20;;
71303;SDS011;59091;47.446;19.148;2023-04-25T10:22:26;1.50;;;1.40;;
71303;SDS011;59091;47.446;19.148;2023-04-25T10:24:56;1.45;;;1.08;;
71303;SDS011;59091;47.446;19.148;2023-04-25T10:27:22;1.40;;;1.30;;
71303;SDS011;59091;47.446;19.148;2023-04-25T10:30:00;1.20;;;1.20;;
71303;SDS011;59091;47.446;19.148;2023-04-25T10:32:33;2.13;;;1.30;;
71303;SDS011;59091;47.446;19.148;2023-04-25T10:38:05;1.40;;;1.30;;
71303;SDS011;59091;47.446;19.148;2023-04-25T10:40:36;1.10;;;1.10;;
71303;SDS011;59091;47.446;19.148;2023-04-25T10:46:01;0.93;;;0.93;;
71303;SDS011;59091;47.446;19.148;2023-04-25T10:48:31;1.02;;;1.00;;
71303;SDS011;59091;47.446;19.148;2023-04-25T10:51:09;3.38;;;0.88;;
71303;SDS011;59091;47.446;19.148;2023-04-25T10:53:35;1.27;;;1.17;;
71303;SDS011;59091;47.446;19.148;2023-04-25T10:56:17;1.05;;;1.05;;
71303;SDS011;59091;47.446;19.148;2023-04-25T10:58:45;1.20;;;1.10;;
71303;SDS011;59091;47.446;19.148;2023-04-25T11:01:12;0.90;;;0.90;;
71303;SDS011;59091;47.446;19.148;2023-04-25T11:03:42;1.30;;;1.20;;
71303;SDS011;59091;47.446;19.148;2023-04-25T11:06:12;1.15;;;1.10;;
71303;SDS011;59091;47.446;19.148;2023-04-25T11:09:02;1.48;;;0.93;;
71303;SDS011;59091;47.446;19.148;2023-04-25T11:11:36;1.20;;;1.08;;
71303;SDS011;59091;47.446;19.148;2023-04-25T11:14:02;0.90;;;0.90;;
71303;SDS011;59091;47.446;19.148;2023-04-25T11:16:27;1.63;;;1.10;;
71303;SDS011;59091;47.446;19.148;2023-04-25T11:18:52;1.00;;;1.00;;
71303;SDS011;59091;47.446;19.148;2023-04-25T11:21:18;0.80;;;0.80;;
71303;SDS011;59091;47.446;19.148;2023-04-25T11:23:46;0.80;;;0.80;;
71303;SDS011;59091;47.446;19.148;2023-04-25T11:26:12;0.88;;;0.85;;
71303;SDS011;59091;47.446;19.148;2023-04-25T11:28:38;1.55;;;0.85;;
71303;SDS011;59091;47.446;19.148;2023-04-25T11:31:04;0.85;;;0.70;;
71303;SDS011;59091;47.446;19.148;2023-04-25T11:33:29;1.02;;;0.73;;
71303;SDS011;59091;47.446;19.148;2023-04-25T11:35:55;2.00;;;1.00;;
71303;SDS011;59091;47.446;19.148;2023-04-25T11:38:24;0.60;;;0.60;;
71303;SDS011;59091;47.446;19.148;2023-04-25T11:40:51;0.75;;;0.60;;
71303;SDS011;59091;47.446;19.148;2023-04-25T11:43:17;0.73;;;0.73;;
71303;SDS011;59091;47.446;19.148;2023-04-25T11:45:48;0.70;;;0.70;;
71303;SDS011;59091;47.446;19.148;2023-04-25T11:48:15;0.73;;;0.73;;
71303;SDS011;59091;47.446;19.148;2023-04-25T11:50:41;0.60;;;0.60;;
71303;SDS011;59091;47.446;19.148;2023-04-25T11:53:07;0.60;;;0.60;;
71303;SDS011;59091;47.446;19.148;2023-04-25T11:55:33;1.33;;;0.60;;
71303;SDS011;59091;47.446;19.148;2023-04-25T11:58:00;1.13;;;0.90;;
71303;SDS011;59091;47.446;19.148;2023-04-25T12:00:26;0.70;;;0.70;;
71303;SDS011;59091;47.446;19.148;2023-04-25T12:02:53;1.60;;;0.90;;
71303;SDS011;59091;47.446;19.148;2023-04-25T12:05:20;0.90;;;0.90;;
71303;SDS011;59091;47.446;19.148;2023-04-25T12:07:48;3.13;;;1.08;;
71303;SDS011;59091;47.446;19.148;2023-04-25T12:10:15;4.10;;;0.70;;
71303;SDS011;59091;47.446;19.148;2023-04-25T12:12:43;0.77;;;0.75;;
71303;SDS011;59091;47.446;19.148;2023-04-25T12:15:22;1.42;;;0.90;;
71303;SDS011;59091;47.446;19.148;2023-04-25T12:17:49;0.90;;;0.90;;
71303;SDS011;59091;47.446;19.148;2023-04-25T12:20:17;0.65;;;0.65;;
71303;SDS011;59091;47.446;19.148;2023-04-25T12:22:53;2.58;;;0.70;;
71303;SDS011;59091;47.446;19.148;2023-04-25T12:31:06;0.93;;;0.90;;
71303;SDS011;59091;47.446;19.148;2023-04-25T12:33:32;1.00;;;1.00;;
71303;SDS011;59091;47.446;19.148;2023-04-25T12:36:02;0.85;;;0.85;;
71303;SDS011;59091;47.446;19.148;2023-04-25T12:38:40;0.90;;;0.90;;
71303;SDS011;59091;47.446;19.148;2023-04-25T12:41:07;0.80;;;0.80;;
71303;SDS011;59091;47.446;19.148;2023-04-25T12:43:33;0.90;;;0.90;;
71303;SDS011;59091;47.446;19.148;2023-04-25T12:45:59;3.28;;;0.90;;
71303;SDS011;59091;47.446;19.148;2023-04-25T12:48:25;4.53;;;1.00;;
71303;SDS011;59091;47.446;19.148;2023-04-25T12:50:50;0.93;;;0.80;;
71303;SDS011;59091;47.446;19.148;2023-04-25T12:53:17;0.90;;;0.90;;
71303;SDS011;59091;47.446;19.148;2023-04-25T12:55:43;2.70;;;1.00;;
71303;SDS011;59091;47.446;19.148;2023-04-25T12:58:15;0.90;;;0.80;;
71303;SDS011;59091;47.446;19.148;2023-04-25T13:00:42;1.75;;;1.00;;
71303;SDS011;59091;47.446;19.148;2023-04-25T13:03:08;1.30;;;0.90;;
71303;SDS011;59091;47.446;19.148;2023-04-25T13:05:34;1.80;;;0.93;;
71303;SDS011;59091;47.446;19.148;2023-04-25T13:08:00;1.05;;;0.90;;
71303;SDS011;59091;47.446;19.148;2023-04-25T13:10:26;1.20;;;1.10;;
71303;SDS011;59091;47.446;19.148;2023-04-25T13:12:51;1.27;;;1.00;;
71303;SDS011;59091;47.446;19.148;2023-04-25T13:15:17;2.58;;;1.10;;
71303;SDS011;59091;47.446;19.148;2023-04-25T13:17:42;0.80;;;0.80;;
71303;SDS011;59091;47.446;19.148;2023-04-25T13:20:08;1.00;;;0.95;;
71303;SDS011;59091;47.446;19.148;2023-04-25T13:22:35;1.10;;;1.00;;
71303;SDS011;59091;47.446;19.148;2023-04-25T13:25:04;1.27;;;1.17;;
71303;SDS011;59091;47.446;19.148;2023-04-25T13:27:31;1.73;;;1.15;;
71303;SDS011;59091;47.446;19.148;2023-04-25T13:29:59;2.50;;;1.10;;
71303;SDS011;59091;47.446;19.148;2023-04-25T13:32:25;1.00;;;1.00;;
71303;SDS011;59091;47.446;19.148;2023-04-25T13:34:51;1.13;;;1.13;;
71303;SDS011;59091;47.446;19.148;2023-04-25T13:37:16;1.77;;;1.20;;
71303;SDS011;59091;47.446;19.148;2023-04-25T13:39:42;3.80;;;1.08;;
71303;SDS011;59091;47.446;19.148;2023-04-25T13:42:07;0.95;;;0.90;;
71303;SDS011;59091;47.446;19.148;2023-04-25T13:44:33;1.48;;;1.20;;
71303;SDS011;59091;47.446;19.148;2023-04-25T13:46:58;2.28;;;1.00;;
71303;SDS011;59091;47.446;19.148;2023-04-25T13:49:25;1.52;;;1.30;;
71303;SDS011;59091;47.446;19.148;2023-04-25T13:51:51;1.10;;;1.10;;
71303;SDS011;59091;47.446;19.148;2023-04-25T13:54:16;1.35;;;1.25;;
71303;SDS011;59091;47.446;19.148;2023-04-25T13:56:42;1.88;;;1.30;;
71303;SDS011;59091;47.446;19.148;2023-04-25T13:59:07;5.82;;;1.40;;
71303;SDS011;59091;47.446;19.148;2023-04-25T14:01:32;1.63;;;1.20;;
71303;SDS011;59091;47.446;19.148;2023-04-25T14:04:00;1.00;;;1.00;;
71303;SDS011;59091;47.446;19.148;2023-04-25T14:06:26;1.52;;;1.13;;
71303;SDS011;59091;47.446;19.148;2023-04-25T14:08:52;1.00;;;1.00;;
71303;SDS011;59091;47.446;19.148;2023-04-25T14:11:19;1.48;;;1.13;;
71303;SDS011;59091;47.446;19.148;2023-04-25T14:13:44;1.45;;;1.00;;
71303;SDS011;59091;47.446;19.148;2023-04-25T14:16:10;1.00;;;1.00;;
71303;SDS011;59091;47.446;19.148;2023-04-25T14:18:35;1.20;;;1.00;;
71303;SDS011;59091;47.446;19.148;2023-04-25T14:21:01;1.00;;;0.95;;
71303;SDS011;59091;47.446;19.148;2023-04-25T14:23:26;2.13;;;1.10;;
71303;SDS011;59091;47.446;19.148;2023-04-25T14:25:52;1.25;;;1.20;;
71303;SDS011;59091;47.446;19.148;2023-04-25T14:28:17;1.15;;;1.08;;
71303;SDS011;59091;47.446;19.148;2023-04-25T14:30:43;1.60;;;1.27;;
71303;SDS011;59091;47.446;19.148;2023-04-25T14:33:08;1.10;;;1.10;;
71303;SDS011;59091;47.446;19.148;2023-04-25T14:35:34;2.88;;;1.30;;
71303;SDS011;59091;47.446;19.148;2023-04-25T14:38:00;2.22;;;1.40;;
71303;SDS011;59091;47.446;19.148;2023-04-25T14:40:26;1.40;;;1.30;;
71303;SDS011;59091;47.446;19.148;2023-04-25T14:42:51;2.85;;;1.50;;
71303;SDS011;59091;47.446;19.148;2023-04-25T14:45:17;2.75;;;1.35;;
71303;SDS011;59091;47.446;19.148;2023-04-25T14:47:42;3.28;;;1.35;;